Time;durP1;ratioP1;P1;durP2;ratioP2;P2;SDS_P1;SDS_P2;PMS_P1;PMS_P2;Temp;Humidity;BMP_temperature;BMP_pressure;BME280_temperature;BME280_humidity;BME280_pressure;Samples;Min_cycle;Max_cycle;Signal;HPM_P1;HPM_P2
2022/09/22 00:01:18;;;;;;;16.17;8.10;;;;;;;;;;4954051;28;20461;-70
2022/09/22 00:03:49;;;;;;;17.42;8.60;;;;;;;;;;4953496;28;20055;-69
2022/09/22 00:06:20;;;;;;;12.43;7.47;;;;;;;;;;4954710;28;20448;-70
2022/09/22 00:08:48;;;;;;;14.73;8.10;;;;;;;;;;4953587;28;20474;-71
2022/09/22 00:11:19;;;;;;;15.82;7.63;;;;;;;;;;4971392;28;20428;-71
2022/09/22 00:13:49;;;;;;;14.30;7.40;;;;;;;;;;4954214;28;20503;-70
2022/09/22 00:16:14;;;;;;;12.30;7.63;;;;;;;;;;4972434;28;20324;-70
2022/09/22 00:18:40;;;;;;;13.68;7.75;;;;;;;;;;4971829;28;20421;-70
2022/09/22 00:21:08;;;;;;;15.40;8.15;;;;;;;;;;4953639;28;20413;-70
2022/09/22 00:23:34;;;;;;;15.80;7.85;;;;;;;;;;4953201;28;20474;-70
2022/09/22 00:26:04;;;;;;;16.17;8.68;;;;;;;;;;4970996;28;20460;-70
2022/09/22 00:28:29;;;;;;;14.45;7.95;;;;;;;;;;4953224;28;20463;-69
2022/09/22 00:30:55;;;;;;;12.13;6.82;;;;;;;;;;4971054;28;20439;-69
2022/09/22 00:33:20;;;;;;;14.80;7.22;;;;;;;;;;4971070;28;20420;-70
2022/09/22 00:35:55;;;;;;;15.52;7.10;;;;;;;;;;4972112;28;20432;-69
2022/09/22 00:38:21;;;;;;;16.55;7.80;;;;;;;;;;4970696;28;20484;-70
2022/09/22 00:40:47;;;;;;;12.63;6.78;;;;;;;;;;4971230;28;20437;-70
2022/09/22 00:43:18;;;;;;;13.73;7.18;;;;;;;;;;4970920;28;20357;-70
2022/09/22 00:45:44;;;;;;;15.68;7.50;;;;;;;;;;4953170;28;20050;-70
2022/09/22 00:48:10;;;;;;;11.85;6.55;;;;;;;;;;4952859;28;20315;-69
2022/09/22 00:50:35;;;;;;;12.63;7.13;;;;;;;;;;4971054;28;20340;-70
2022/09/22 00:53:14;;;;;;;11.32;6.78;;;;;;;;;;4952975;28;20504;-69
2022/09/22 00:55:47;;;;;;;14.55;6.38;;;;;;;;;;4952253;28;20367;-70
2022/09/22 00:58:16;;;;;;;12.38;6.93;;;;;;;;;;4971067;28;20436;-70
2022/09/22 01:00:42;;;;;;;12.73;6.93;;;;;;;;;;4970369;28;20371;-69
2022/09/22 01:03:11;;;;;;;13.07;7.28;;;;;;;;;;4982585;28;20382;-69
2022/09/22 01:05:37;;;;;;;14.45;6.72;;;;;;;;;;4952497;28;20038;-69
2022/09/22 01:08:02;;;;;;;15.88;7.30;;;;;;;;;;4952429;28;20033;-70
2022/09/22 01:10:27;;;;;;;14.23;7.63;;;;;;;;;;4970377;28;20441;-69
2022/09/22 01:13:20;;;;;;;16.58;8.07;;;;;;;;;;4952847;28;20479;-70
2022/09/22 01:16:11;;;;;;;13.77;7.32;;;;;;;;;;4970248;28;20337;-70
2022/09/22 01:18:56;;;;;;;14.48;6.97;;;;;;;;;;4970268;28;20038;-69
2022/09/22 01:21:50;;;;;;;15.77;7.85;;;;;;;;;;4971320;28;20318;-70
2022/09/22 01:24:28;;;;;;;12.70;6.95;;;;;;;;;;4953305;28;20428;-70
2022/09/22 01:27:17;;;;;;;14.27;6.78;;;;;;;;;;4969906;28;20033;-70
2022/09/22 01:29:49;;;;;;;12.48;6.90;;;;;;;;;;4971422;28;20029;-70
2022/09/22 01:32:21;;;;;;;14.05;6.80;;;;;;;;;;4952093;28;20534;-68
2022/09/22 01:35:15;;;;;;;11.73;6.00;;;;;;;;;;4970169;28;20595;-70
2022/09/22 01:38:03;;;;;;;12.70;7.07;;;;;;;;;;4952470;28;20518;-70
2022/09/22 01:40:41;;;;;;;15.30;6.68;;;;;;;;;;4969724;28;20514;-69
2022/09/22 01:43:22;;;;;;;13.88;6.75;;;;;;;;;;4970721;28;20344;-70
2022/09/22 01:45:47;;;;;;;13.15;6.55;;;;;;;;;;4969515;28;20361;-70
2022/09/22 01:48:19;;;;;;;12.52;6.43;;;;;;;;;;4951745;28;20033;-70
2022/09/22 01:51:04;;;;;;;14.75;6.97;;;;;;;;;;4951786;28;20383;-70
2022/09/22 01:53:33;;;;;;;12.77;5.70;;;;;;;;;;4969907;28;20379;-69
2022/09/22 01:56:04;;;;;;;11.60;5.32;;;;;;;;;;4951996;28;20448;-70
2022/09/22 01:58:52;;;;;;;13.38;6.50;;;;;;;;;;4952240;28;20399;-70
2022/09/22 02:01:27;;;;;;;11.48;6.85;;;;;;;;;;4969486;28;20073;-69
2022/09/22 02:03:57;;;;;;;11.23;6.20;;;;;;;;;;4952394;28;20360;-70
2022/09/22 02:06:31;;;;;;;16.77;6.72;;;;;;;;;;4951571;28;20444;-69
2022/09/22 02:09:23;;;;;;;12.50;6.85;;;;;;;;;;4951816;28;20025;-70
2022/09/22 02:11:49;;;;;;;14.02;6.38;;;;;;;;;;4950718;28;20042;-70
2022/09/22 02:14:14;;;;;;;11.32;5.97;;;;;;;;;;4950782;28;20397;-70
2022/09/22 02:16:40;;;;;;;15.00;6.78;;;;;;;;;;4951227;28;20448;-71
2022/09/22 02:19:16;;;;;;;12.02;6.75;;;;;;;;;;4951210;28;20416;-69
2022/09/22 02:21:43;;;;;;;10.73;5.35;;;;;;;;;;4951879;28;20432;-70
2022/09/22 02:24:39;;;;;;;8.95;5.35;;;;;;;;;;4968911;28;20431;-70
2022/09/22 02:27:07;;;;;;;14.18;6.45;;;;;;;;;;4951047;28;20472;-71
2022/09/22 02:29:38;;;;;;;11.32;6.10;;;;;;;;;;4951063;28;20420;-69
2022/09/22 02:32:06;;;;;;;13.23;6.43;;;;;;;;;;4951090;28;20433;-70
2022/09/22 02:34:32;;;;;;;15.40;5.97;;;;;;;;;;4951140;28;20451;-69
2022/09/22 02:37:22;;;;;;;11.40;6.13;;;;;;;;;;4950662;28;20455;-69
2022/09/22 02:40:22;;;;;;;10.27;5.70;;;;;;;;;;4968638;28;20025;-70
2022/09/22 02:43:18;;;;;;;10.55;5.55;;;;;;;;;;4969172;28;20452;-70
2022/09/22 02:45:51;;;;;;;11.82;6.00;;;;;;;;;;4970445;28;20344;-70
2022/09/22 02:48:23;;;;;;;10.30;5.68;;;;;;;;;;4950519;28;20440;-70
2022/09/22 02:50:49;;;;;;;12.88;6.35;;;;;;;;;;4951218;28;20372;-70
2022/09/22 02:53:16;;;;;;;10.05;5.95;;;;;;;;;;4950399;28;20372;-70
2022/09/22 02:55:41;;;;;;;11.63;5.80;;;;;;;;;;4950739;28;20349;-70
2022/09/22 02:58:07;;;;;;;9.38;5.40;;;;;;;;;;4951343;28;20025;-70
2022/09/22 03:00:32;;;;;;;10.45;5.63;;;;;;;;;;4968356;28;20456;-70
2022/09/22 03:02:58;;;;;;;12.82;5.80;;;;;;;;;;4968173;28;20437;-70
2022/09/22 03:05:24;;;;;;;11.57;5.28;;;;;;;;;;4968106;28;20344;-70
2022/09/22 03:07:49;;;;;;;10.02;5.38;;;;;;;;;;4969750;28;20052;-70
2022/09/22 03:10:14;;;;;;;9.40;5.50;;;;;;;;;;4950505;28;20460;-69
2022/09/22 03:12:41;;;;;;;7.85;5.45;;;;;;;;;;4950382;28;20386;-69
2022/09/22 03:15:10;;;;;;;10.27;5.43;;;;;;;;;;4950702;28;20341;-70
2022/09/22 03:17:35;;;;;;;;;;;;;;;;;;4950761;28;20456;-71
2022/09/22 03:20:03;;;;;;;9.10;5.15;;;;;;;;;;4935248;28;20350;-70
2022/09/22 03:22:28;;;;;;;11.38;5.85;;;;;;;;;;4969455;28;20033;-70
2022/09/22 03:24:53;;;;;;;12.43;6.43;;;;;;;;;;4967957;28;20048;-70
2022/09/22 03:27:19;;;;;;;11.55;5.93;;;;;;;;;;4967933;28;20064;-69
2022/09/22 03:29:44;;;;;;;11.30;5.57;;;;;;;;;;4968005;28;20456;-69
2022/09/22 03:32:10;;;;;;;10.88;5.78;;;;;;;;;;4967899;28;20048;-70
2022/09/22 03:34:35;;;;;;;11.35;5.28;;;;;;;;;;4969840;28;20021;-69
2022/09/22 03:37:00;;;;;;;12.02;5.82;;;;;;;;;;4968538;28;20324;-70
2022/09/22 03:39:26;;;;;;;8.93;5.60;;;;;;;;;;4967779;28;20341;-69
2022/09/22 03:41:51;;;;;;;12.43;5.95;;;;;;;;;;4950148;28;20091;-70
2022/09/22 03:44:16;;;;;;;9.02;4.90;;;;;;;;;;4967949;28;20026;-69
2022/09/22 03:46:42;;;;;;;13.13;5.68;;;;;;;;;;4949935;28;20056;-70
2022/09/22 03:49:08;;;;;;;9.52;4.90;;;;;;;;;;4966514;28;20345;-69
2022/09/22 03:51:33;;;;;;;11.60;6.03;;;;;;;;;;4968555;28;20048;-69
2022/09/22 03:53:59;;;;;;;10.80;5.20;;;;;;;;;;4949487;28;20211;-69
2022/09/22 03:56:25;;;;;;;12.65;5.72;;;;;;;;;;4967585;28;20180;-69
2022/09/22 03:58:50;;;;;;;11.40;5.35;;;;;;;;;;4967570;28;20060;-69
2022/09/22 04:01:15;;;;;;;9.43;4.65;;;;;;;;;;4968317;28;20329;-70
2022/09/22 04:03:41;;;;;;;11.48;5.50;;;;;;;;;;4949862;28;20452;-70
2022/09/22 04:06:06;;;;;;;10.90;5.30;;;;;;;;;;4968049;28;20352;-70
2022/09/22 04:08:32;;;;;;;10.50;4.75;;;;;;;;;;4950800;28;20444;-70
2022/09/22 04:10:59;;;;;;;8.77;4.75;;;;;;;;;;4968371;28;20342;-70
2022/09/22 04:13:24;;;;;;;8.82;4.72;;;;;;;;;;4967496;28;20383;-70
2022/09/22 04:15:50;;;;;;;10.45;5.15;;;;;;;;;;4949706;28;20052;-70
2022/09/22 04:18:15;;;;;;;12.23;5.43;;;;;;;;;;4968913;28;20412;-69
2022/09/22 04:20:42;;;;;;;9.05;5.15;;;;;;;;;;4967658;28;20108;-70
2022/09/22 04:23:09;;;;;;;10.07;5.22;;;;;;;;;;4967511;28;20436;-71
2022/09/22 04:25:34;;;;;;;11.25;5.88;;;;;;;;;;4949564;28;20424;-69
2022/09/22 04:27:59;;;;;;;12.00;5.43;;;;;;;;;;4967276;28;20385;-70
2022/09/22 04:30:25;;;;;;;7.43;4.28;;;;;;;;;;4967435;28;20531;-70
2022/09/22 04:32:50;;;;;;;9.93;4.82;;;;;;;;;;4967375;28;20400;-70
2022/09/22 04:35:16;;;;;;;9.63;5.38;;;;;;;;;;4967385;28;20459;-69
2022/09/22 04:37:41;;;;;;;8.50;4.53;;;;;;;;;;4968056;28;20037;-70
2022/09/22 04:40:10;;;;;;;11.63;5.50;;;;;;;;;;4970904;28;20356;-70
2022/09/22 04:42:36;;;;;;;;;;;;;;;;;;4971232;28;20037;-69
2022/09/22 04:45:01;;;;;;;9.32;4.93;;;;;;;;;;4953426;28;20434;-69
2022/09/22 04:47:30;;;;;;;7.60;4.70;;;;;;;;;;4970857;28;20442;-69
2022/09/22 04:49:55;;;;;;;9.43;5.10;;;;;;;;;;4954404;28;20388;-70
2022/09/22 04:52:21;;;;;;;8.68;4.90;;;;;;;;;;4953764;28;20272;-70
2022/09/22 04:54:46;;;;;;;10.65;4.88;;;;;;;;;;4970302;28;20041;-69
2022/09/22 04:57:11;;;;;;;10.93;5.85;;;;;;;;;;4952884;28;20033;-70
2022/09/22 04:59:37;;;;;;;8.40;5.13;;;;;;;;;;4970918;28;20373;-70
2022/09/22 05:02:02;;;;;;;11.35;5.10;;;;;;;;;;4970420;28;20497;-69
2022/09/22 05:04:28;;;;;;;10.38;4.53;;;;;;;;;;4970489;28;20376;-70
2022/09/22 05:06:54;;;;;;;8.05;4.63;;;;;;;;;;4952619;28;20487;-70
2022/09/22 05:09:19;;;;;;;8.25;5.32;;;;;;;;;;4952286;28;20425;-70
2022/09/22 05:11:47;;;;;;;9.70;4.72;;;;;;;;;;4952726;28;20415;-70
2022/09/22 05:14:14;;;;;;;10.38;5.28;;;;;;;;;;4970851;28;20409;-70
2022/09/22 05:16:40;;;;;;;10.55;4.82;;;;;;;;;;4970304;28;20452;-69
2022/09/22 05:19:08;;;;;;;7.88;4.60;;;;;;;;;;4952780;28;20433;-70
2022/09/22 05:21:34;;;;;;;11.23;5.18;;;;;;;;;;4970934;28;20122;-70
2022/09/22 05:23:59;;;;;;;8.65;4.43;;;;;;;;;;4970033;28;20516;-70
2022/09/22 05:26:25;;;;;;;9.05;4.60;;;;;;;;;;4952763;28;20429;-70
2022/09/22 05:28:50;;;;;;;11.07;5.47;;;;;;;;;;4971863;28;20030;-70
2022/09/22 05:31:16;;;;;;;8.88;4.47;;;;;;;;;;4952280;28;20132;-71
2022/09/22 05:33:41;;;;;;;7.78;4.30;;;;;;;;;;4970194;28;20495;-69
2022/09/22 05:36:06;;;;;;;9.15;4.63;;;;;;;;;;4971123;28;20506;-70
2022/09/22 05:38:32;;;;;;;7.30;4.22;;;;;;;;;;4971356;28;20033;-69
2022/09/22 05:40:57;;;;;;;10.05;4.32;;;;;;;;;;4969835;28;20436;-70
2022/09/22 05:43:23;;;;;;;8.60;4.18;;;;;;;;;;4969660;28;20080;-70
2022/09/22 05:45:48;;;;;;;7.45;4.22;;;;;;;;;;4969828;28;20444;-70
2022/09/22 05:48:14;;;;;;;6.88;3.92;;;;;;;;;;4969849;28;20061;-69
2022/09/22 05:50:39;;;;;;;5.90;3.65;;;;;;;;;;4951331;28;20025;-70
2022/09/22 05:53:07;;;;;;;8.23;4.53;;;;;;;;;;4969072;28;20379;-69
2022/09/22 05:55:33;;;;;;;6.72;3.85;;;;;;;;;;4951764;28;20073;-70
2022/09/22 05:57:59;;;;;;;5.68;4.05;;;;;;;;;;4969563;28;20546;-69
2022/09/22 06:00:24;;;;;;;7.57;4.03;;;;;;;;;;4952110;28;20455;-69
2022/09/22 06:02:50;;;;;;;6.68;3.88;;;;;;;;;;4970024;28;20091;-70
2022/09/22 06:05:15;;;;;;;6.78;3.75;;;;;;;;;;4951710;28;20495;-69
2022/09/22 06:07:41;;;;;;;7.07;4.07;;;;;;;;;;4951485;28;20450;-69
2022/09/22 06:10:06;;;;;;;8.63;4.05;;;;;;;;;;4970628;28;20483;-70
2022/09/22 06:12:32;;;;;;;7.07;4.13;;;;;;;;;;4951394;28;20029;-69
2022/09/22 06:14:57;;;;;;;6.80;3.92;;;;;;;;;;4951495;28;20483;-69
2022/09/22 06:17:22;;;;;;;7.28;4.38;;;;;;;;;;4969090;28;20411;-69
2022/09/22 06:19:49;;;;;;;6.28;4.10;;;;;;;;;;4952416;28;20433;-70
2022/09/22 06:22:15;;;;;;;7.40;3.97;;;;;;;;;;4952146;28;20428;-69
2022/09/22 06:24:42;;;;;;;7.40;3.72;;;;;;;;;;4970801;28;20415;-69
2022/09/22 06:27:07;;;;;;;8.52;4.18;;;;;;;;;;4970864;28;20300;-69
2022/09/22 06:29:32;;;;;;;6.82;4.28;;;;;;;;;;4988655;28;20321;-69
2022/09/22 06:31:58;;;;;;;13.13;5.70;;;;;;;;;;4988552;28;20286;-70
2022/09/22 06:34:25;;;;;;;8.68;5.78;;;;;;;;;;4988379;28;20207;-69
2022/09/22 06:36:54;;;;;;;11.85;5.43;;;;;;;;;;4988485;28;20489;-70
2022/09/22 06:39:20;;;;;;;;;;;;;;;;;;4989111;28;20462;-69
2022/09/22 06:41:45;;;;;;;8.18;4.55;;;;;;;;;;4988393;28;20323;-70
2022/09/22 06:44:11;;;;;;;8.20;4.57;;;;;;;;;;4988231;28;20404;-69
2022/09/22 06:46:37;;;;;;;9.85;4.68;;;;;;;;;;4988590;28;20111;-69
2022/09/22 06:49:03;;;;;;;7.07;4.10;;;;;;;;;;4970545;28;20056;-70
2022/09/22 06:51:31;;;;;;;8.63;4.18;;;;;;;;;;4988367;28;20028;-70
2022/09/22 06:53:57;;;;;;;8.88;4.00;;;;;;;;;;4965766;28;20365;-69
2022/09/22 06:56:25;;;;;;;7.13;3.90;;;;;;;;;;4950468;28;20535;-70
2022/09/22 06:58:51;;;;;;;6.97;3.78;;;;;;;;;;4950677;28;20392;-69
2022/09/22 07:01:18;;;;;;;7.50;4.20;;;;;;;;;;4968279;28;20399;-69
2022/09/22 07:03:43;;;;;;;8.60;3.75;;;;;;;;;;4968103;28;20399;-70
2022/09/22 07:06:09;;;;;;;7.47;4.13;;;;;;;;;;4951145;28;20454;-70
2022/09/22 07:08:38;;;;;;;7.53;3.63;;;;;;;;;;4950403;28;20548;-69
2022/09/22 07:11:07;;;;;;;16.23;4.43;;;;;;;;;;4969658;28;20056;-70
2022/09/22 07:13:38;;;;;;;7.65;4.28;;;;;;;;;;4951294;28;20459;-70
2022/09/22 07:16:15;;;;;;;7.95;3.97;;;;;;;;;;4966536;28;20595;-70
2022/09/22 07:18:43;;;;;;;7.05;3.50;;;;;;;;;;4950248;28;20333;-69
2022/09/22 07:21:19;;;;;;;5.70;3.42;;;;;;;;;;4968158;28;20456;-69
2022/09/22 07:23:45;;;;;;;7.88;4.10;;;;;;;;;;4950744;28;20097;-70
2022/09/22 07:26:13;;;;;;;6.85;3.80;;;;;;;;;;4967770;28;20026;-69
2022/09/22 07:28:39;;;;;;;9.98;2.90;;;;;;;;;;4950418;28;20420;-70
2022/09/22 07:31:07;;;;;;;6.45;3.22;;;;;;;;;;4950553;28;20420;-69
2022/09/22 07:33:36;;;;;;;5.90;3.50;;;;;;;;;;4968413;28;20428;-69
2022/09/22 07:36:06;;;;;;;5.85;3.50;;;;;;;;;;4950880;28;20017;-70
2022/09/22 07:38:35;;;;;;;6.13;3.42;;;;;;;;;;4968533;28;20455;-69
2022/09/22 07:41:02;;;;;;;9.52;3.28;;;;;;;;;;4967760;28;20314;-70
2022/09/22 07:43:28;;;;;;;7.22;3.35;;;;;;;;;;4967628;28;20056;-69
2022/09/22 07:45:56;;;;;;;7.68;3.40;;;;;;;;;;4967790;28;20409;-69
2022/09/22 07:51:07;;;;;;;6.70;3.55;;;;;;;;;;4967622;28;20515;-70
2022/09/22 07:53:34;;;;;;;5.95;3.30;;;;;;;;;;4950283;28;20341;-69
2022/09/22 07:56:13;;;;;;;4.32;2.63;;;;;;;;;;4967482;28;20458;-69
2022/09/22 07:58:41;;;;;;;6.22;3.17;;;;;;;;;;4967465;28;20511;-69
2022/09/22 08:01:10;;;;;;;8.07;4.20;;;;;;;;;;4967555;28;20025;-69
2022/09/22 08:03:36;;;;;;;9.30;3.35;;;;;;;;;;4949871;28;20317;-69
2022/09/22 08:06:09;;;;;;;6.43;3.90;;;;;;;;;;4949718;28;20375;-69
2022/09/22 08:08:41;;;;;;;6.70;4.05;;;;;;;;;;4967454;28;20397;-70
2022/09/22 08:11:10;;;;;;;8.98;3.20;;;;;;;;;;4934513;28;20388;-69
2022/09/22 08:13:35;;;;;;;;;;;;;;;;;;4970129;28;20411;-70
2022/09/22 08:16:02;;;;;;;6.00;3.25;;;;;;;;;;4971432;28;20330;-69
2022/09/22 08:18:28;;;;;;;4.22;2.88;;;;;;;;;;4971183;28;20436;-68
2022/09/22 08:20:54;;;;;;;7.72;3.42;;;;;;;;;;4972259;28;20328;-69
2022/09/22 08:23:19;;;;;;;5.53;3.03;;;;;;;;;;4953277;28;20102;-70
2022/09/22 08:25:44;;;;;;;10.73;3.28;;;;;;;;;;4971204;28;20433;-69
2022/09/22 08:28:10;;;;;;;7.25;3.20;;;;;;;;;;4971395;28;20444;-69
2022/09/22 08:30:35;;;;;;;5.15;3.17;;;;;;;;;;4971045;28;20030;-69
2022/09/22 08:33:00;;;;;;;6.50;3.40;;;;;;;;;;4953111;28;20336;-70
2022/09/22 08:35:26;;;;;;;4.63;2.65;;;;;;;;;;4971169;28;20353;-69
2022/09/22 08:37:52;;;;;;;4.85;2.92;;;;;;;;;;4970598;28;20132;-69
2022/09/22 08:40:24;;;;;;;6.18;2.78;;;;;;;;;;4969290;28;20340;-68
2022/09/22 08:42:53;;;;;;;6.72;3.55;;;;;;;;;;4971655;28;20325;-69
2022/09/22 08:45:32;;;;;;;5.28;2.90;;;;;;;;;;4953027;28;20757;-69
2022/09/22 08:53:55;;;;;;;5.70;3.20;;;;;;;;;;4956163;28;20138;-68
2022/09/22 08:56:28;;;;;;;4.10;3.00;;;;;;;;;;4953160;28;20432;-68
2022/09/22 08:59:16;;;;;;;4.60;2.63;;;;;;;;;;4971466;28;20333;-69
2022/09/22 09:01:59;;;;;;;4.88;2.85;;;;;;;;;;4972741;28;20056;-68
2022/09/22 09:04:55;;;;;;;5.32;2.85;;;;;;;;;;4968794;28;20041;-69
2022/09/22 09:07:42;;;;;;;5.45;2.42;;;;;;;;;;4952492;28;20386;-69
2022/09/22 09:10:23;;;;;;;4.85;2.63;;;;;;;;;;4972288;28;20436;-68
2022/09/22 09:13:16;;;;;;;4.50;2.65;;;;;;;;;;4972067;28;20025;-68
2022/09/22 09:15:52;;;;;;;5.82;2.60;;;;;;;;;;4952235;28;20344;-69
2022/09/22 09:18:25;;;;;;;3.45;2.30;;;;;;;;;;4952251;28;20448;-69
2022/09/22 09:20:51;;;;;;;4.82;3.03;;;;;;;;;;4952398;28;20456;-70
2022/09/22 09:23:21;;;;;;;4.15;2.38;;;;;;;;;;4968527;28;20464;-69
2022/09/22 09:25:53;;;;;;;4.75;2.85;;;;;;;;;;4952561;28;20429;-69
2022/09/22 09:28:45;;;;;;;4.30;2.72;;;;;;;;;;4952349;28;20391;-69
2022/09/22 09:31:31;;;;;;;4.97;2.85;;;;;;;;;;4969864;28;20467;-69
2022/09/22 09:34:03;;;;;;;4.75;2.55;;;;;;;;;;4952200;28;20459;-69
2022/09/22 09:36:37;;;;;;;4.60;3.10;;;;;;;;;;4952111;28;20044;-69
2022/09/22 09:39:10;;;;;;;5.18;2.45;;;;;;;;;;4970167;28;20025;-69
2022/09/22 09:41:36;;;;;;;3.70;2.08;;;;;;;;;;4969789;28;20051;-69
2022/09/22 09:44:02;;;;;;;7.63;2.22;;;;;;;;;;4969809;28;20456;-69
2022/09/22 09:47:01;;;;;;;5.57;2.88;;;;;;;;;;4952079;28;20421;-69
2022/09/22 09:49:26;;;;;;;;;;;;;;;;;;4952037;28;20436;-69
2022/09/22 09:51:54;;;;;;;5.72;2.40;;;;;;;;;;4970571;28;20356;-69
2022/09/22 09:54:20;;;;;;;5.88;2.70;;;;;;;;;;4951087;28;20124;-69
2022/09/22 09:57:12;;;;;;;5.53;2.80;;;;;;;;;;4969369;28;20478;-69
2022/09/22 10:02:27;;;;;;;6.50;2.58;;;;;;;;;;4954241;28;20131;-69
2022/09/22 10:05:26;;;;;;;5.38;2.50;;;;;;;;;;4969126;28;20404;-69
2022/09/22 10:07:56;;;;;;;5.88;3.53;;;;;;;;;;4935971;28;20464;-69
2022/09/22 10:10:27;;;;;;;5.80;2.65;;;;;;;;;;4951464;28;20060;-69
2022/09/22 10:12:55;;;;;;;3.97;2.28;;;;;;;;;;4970382;28;20456;-69
2022/09/22 10:15:23;;;;;;;6.18;2.38;;;;;;;;;;4952398;28;20345;-69
2022/09/22 10:17:48;;;;;;;4.22;2.67;;;;;;;;;;4969725;28;20393;-69
2022/09/22 10:20:31;;;;;;;4.25;2.70;;;;;;;;;;4951710;28;20411;-70
2022/09/22 10:23:20;;;;;;;3.35;2.28;;;;;;;;;;4968835;28;20436;-69
2022/09/22 10:25:45;;;;;;;8.05;3.35;;;;;;;;;;4969067;28;20057;-71
2022/09/22 10:28:19;;;;;;;4.85;3.05;;;;;;;;;;4970917;28;20057;-70
2022/09/22 10:30:59;;;;;;;4.75;3.20;;;;;;;;;;4951079;28;20145;-69
2022/09/22 10:33:25;;;;;;;6.32;3.15;;;;;;;;;;4951209;28;20523;-69
2022/09/22 10:36:07;;;;;;;5.30;2.60;;;;;;;;;;4950451;28;20459;-70
2022/09/22 10:38:36;;;;;;;7.80;3.45;;;;;;;;;;4950811;28;20531;-70
2022/09/22 10:41:06;;;;;;;;;;;;;;;;;;4952111;28;20486;-70
2022/09/22 10:43:50;;;;;;;6.50;2.90;;;;;;;;;;4968607;28;20310;-69
2022/09/22 10:46:48;;;;;;;6.47;2.47;;;;;;;;;;4969261;28;20360;-70
2022/09/22 10:49:40;;;;;;;6.80;2.60;;;;;;;;;;4969049;28;20329;-70
2022/09/22 10:52:24;;;;;;;4.82;2.72;;;;;;;;;;4968565;28;20460;-69
2022/09/22 10:55:16;;;;;;;3.28;2.25;;;;;;;;;;4968127;28;20448;-69
2022/09/22 10:57:50;;;;;;;4.50;2.58;;;;;;;;;;4950596;28;20443;-70
2022/09/22 11:00:23;;;;;;;4.53;2.50;;;;;;;;;;4968946;28;20352;-70
2022/09/22 11:03:10;;;;;;;4.07;2.53;;;;;;;;;;4950693;28;20048;-69
2022/09/22 11:14:45;;;;;;;3.55;2.20;;;;;;;;;;4953299;28;20385;-69
2022/09/22 11:17:30;;;;;;;4.80;2.83;;;;;;;;;;4934004;28;20355;-69
2022/09/22 11:20:35;;;;;;;4.97;2.08;;;;;;;;;;4950435;28;20467;-69
2022/09/22 11:23:35;;;;;;;4.68;2.40;;;;;;;;;;4960540;28;20411;-69
2022/09/22 11:26:51;;;;;;;6.53;2.03;;;;;;;;;;4968238;28;20060;-70
2022/09/22 11:29:40;;;;;;;3.90;2.45;;;;;;;;;;4945932;28;20463;-70
2022/09/22 11:32:12;;;;;;;4.18;2.25;;;;;;;;;;4946085;28;20480;-70
2022/09/22 11:35:22;;;;;;;4.78;2.55;;;;;;;;;;4960715;28;20424;-70
2022/09/22 11:38:08;;;;;;;3.47;2.03;;;;;;;;;;4957125;28;20583;-69
2022/09/22 11:40:59;;;;;;;3.97;2.58;;;;;;;;;;4967706;28;20583;-69
2022/09/22 11:43:45;;;;;;;4.75;2.28;;;;;;;;;;4967706;28;20436;-70
2022/09/22 11:46:22;;;;;;;2.38;1.85;;;;;;;;;;4949909;28;20021;-70
2022/09/22 11:48:53;;;;;;;4.18;2.05;;;;;;;;;;4952996;28;20534;-71
2022/09/22 11:51:18;;;;;;;2.85;2.00;;;;;;;;;;4970137;28;20325;-70
2022/09/22 11:53:59;;;;;;;4.18;2.33;;;;;;;;;;4972121;28;20328;-71
2022/09/22 11:56:48;;;;;;;6.35;2.28;;;;;;;;;;4954140;28;20367;-69
2022/09/22 11:59:31;;;;;;;2.95;1.98;;;;;;;;;;4971609;28;20495;-70
2022/09/22 12:02:03;;;;;;;3.53;1.45;;;;;;;;;;4973218;28;20037;-69
2022/09/22 12:04:31;;;;;;;4.22;2.10;;;;;;;;;;4954289;28;20376;-70
2022/09/22 12:06:58;;;;;;;3.03;1.67;;;;;;;;;;4971606;28;20025;-70
2022/09/22 12:09:45;;;;;;;3.95;1.77;;;;;;;;;;4953857;28;20440;-70
2022/09/22 12:12:16;;;;;;;2.90;2.20;;;;;;;;;;4953756;28;20408;-69
2022/09/22 12:14:41;;;;;;;3.22;2.00;;;;;;;;;;4953861;28;20030;-70
2022/09/22 12:17:14;;;;;;;3.42;2.00;;;;;;;;;;4937261;28;20107;-69
2022/09/22 12:19:49;;;;;;;3.75;1.92;;;;;;;;;;4953761;28;20395;-69
2022/09/22 12:22:53;;;;;;;3.95;2.10;;;;;;;;;;4971201;28;20467;-69
2022/09/22 12:25:49;;;;;;;3.38;2.33;;;;;;;;;;4971376;28;20506;-68
2022/09/22 12:28:21;;;;;;;3.17;1.80;;;;;;;;;;4971116;28;20440;-68
2022/09/22 12:31:05;;;;;;;4.75;2.10;;;;;;;;;;4971554;28;20523;-69
2022/09/22 12:33:33;;;;;;;6.45;2.13;;;;;;;;;;4971187;28;20318;-69
2022/09/22 12:35:58;;;;;;;2.90;1.70;;;;;;;;;;4970808;28;20384;-69
2022/09/22 12:38:24;;;;;;;2.95;2.20;;;;;;;;;;4953230;28;20396;-69
2022/09/22 12:40:54;;;;;;;5.28;2.38;;;;;;;;;;4953246;28;20052;-70
2022/09/22 12:43:21;;;;;;;4.97;2.03;;;;;;;;;;4953393;28;20443;-69
2022/09/22 12:45:47;;;;;;;4.60;2.28;;;;;;;;;;4970675;28;20503;-70
2022/09/22 12:48:16;;;;;;;3.03;1.80;;;;;;;;;;4954225;28;20133;-69
2022/09/22 12:50:43;;;;;;;4.35;2.50;;;;;;;;;;4953279;28;20409;-69
2022/09/22 12:53:19;;;;;;;3.38;1.67;;;;;;;;;;4953109;28;20502;-69
2022/09/22 12:55:45;;;;;;;3.20;1.90;;;;;;;;;;4970449;28;20419;-71
2022/09/22 12:58:19;;;;;;;2.95;1.77;;;;;;;;;;4970143;28;20392;-69
2022/09/22 13:00:45;;;;;;;3.53;2.00;;;;;;;;;;4968895;28;20349;-69
2022/09/22 13:03:25;;;;;;;3.50;1.77;;;;;;;;;;4952800;28;20356;-68
2022/09/22 13:05:58;;;;;;;2.97;1.80;;;;;;;;;;4970411;28;20116;-68
2022/09/22 13:08:29;;;;;;;2.75;1.73;;;;;;;;;;4952490;28;20048;-68
2022/09/22 13:10:58;;;;;;;5.13;1.98;;;;;;;;;;4970280;28;20403;-69
2022/09/22 13:13:44;;;;;;;3.10;1.93;;;;;;;;;;4971264;28;20425;-69
2022/09/22 13:16:12;;;;;;;2.45;1.48;;;;;;;;;;4953029;28;20801;-68
2022/09/22 13:18:59;;;;;;;2.83;1.67;;;;;;;;;;4970127;28;20439;-68
2022/09/22 13:21:27;;;;;;;4.57;2.03;;;;;;;;;;4970132;28;20059;-69
2022/09/22 13:23:56;;;;;;;2.65;1.83;;;;;;;;;;4969951;28;20472;-68
2022/09/22 13:26:36;;;;;;;5.45;1.92;;;;;;;;;;4952953;28;20361;-68
2022/09/22 13:29:12;;;;;;;3.88;1.92;;;;;;;;;;4952263;28;20372;-68
2022/09/22 13:31:54;;;;;;;5.45;2.00;;;;;;;;;;4969917;28;20362;-68
2022/09/22 13:34:34;;;;;;;3.88;1.95;;;;;;;;;;4952576;28;20111;-68
2022/09/22 13:37:03;;;;;;;4.65;2.28;;;;;;;;;;4970019;28;20487;-68
2022/09/22 13:39:31;;;;;;;1.80;1.52;;;;;;;;;;4969945;28;20468;-68
2022/09/22 13:42:18;;;;;;;3.40;1.48;;;;;;;;;;4952181;28;20335;-68
2022/09/22 13:44:47;;;;;;;2.97;1.50;;;;;;;;;;4952132;28;20451;-68
2022/09/22 13:47:17;;;;;;;2.67;2.00;;;;;;;;;;4969689;28;20448;-68
2022/09/22 13:49:46;;;;;;;3.95;1.98;;;;;;;;;;4968408;28;20637;-68
2022/09/22 13:52:13;;;;;;;;;;;;;;;;;;4952315;28;20459;-69
2022/09/22 13:54:39;;;;;;;2.90;1.63;;;;;;;;;;4969043;28;20381;-69
2022/09/22 13:57:13;;;;;;;4.00;2.28;;;;;;;;;;4969344;28;20510;-68
2022/09/22 13:59:40;;;;;;;3.97;2.10;;;;;;;;;;4935423;28;20456;-68
2022/09/22 14:02:09;;;;;;;2.63;1.70;;;;;;;;;;4969452;28;20025;-69
2022/09/22 14:04:34;;;;;;;;;;;;;;;;;;4972002;28;20361;-70
2022/09/22 14:07:02;;;;;;;3.72;1.67;;;;;;;;;;4969814;28;20224;-70
2022/09/22 14:09:29;;;;;;;2.42;1.55;;;;;;;;;;4951630;28;20510;-69
2022/09/22 14:11:56;;;;;;;2.15;1.45;;;;;;;;;;4968548;28;20368;-70
2022/09/22 14:14:24;;;;;;;2.22;1.58;;;;;;;;;;4952154;28;20086;-70
2022/09/22 14:16:52;;;;;;;3.13;1.48;;;;;;;;;;4969227;28;20103;-70
2022/09/22 14:19:25;;;;;;;3.77;2.07;;;;;;;;;;4967737;28;20388;-70
2022/09/22 14:22:18;;;;;;;2.75;1.55;;;;;;;;;;4951992;28;20772;-70
2022/09/22 14:24:49;;;;;;;4.57;2.13;;;;;;;;;;4948500;28;20438;-70
2022/09/22 14:27:34;;;;;;;6.30;4.10;;;;;;;;;;4951000;28;20367;-69
2022/09/22 14:30:01;;;;;;;4.20;2.88;;;;;;;;;;4969364;28;20425;-69
2022/09/22 14:32:33;;;;;;;4.43;2.30;;;;;;;;;;4951697;28;20318;-70
2022/09/22 14:35:02;;;;;;;6.07;3.40;;;;;;;;;;4968766;28;20065;-70
2022/09/22 14:37:41;;;;;;;3.30;2.25;;;;;;;;;;4951184;28;20441;-70
2022/09/22 14:40:14;;;;;;;2.83;2.10;;;;;;;;;;4934863;28;20393;-69
2022/09/22 14:42:39;;;;;;;4.65;2.20;;;;;;;;;;4951492;28;20454;-70
2022/09/22 14:45:13;;;;;;;3.85;2.00;;;;;;;;;;4950903;28;20525;-69
2022/09/22 14:47:39;;;;;;;4.57;1.95;;;;;;;;;;4951849;28;20337;-70
2022/09/22 14:50:17;;;;;;;3.25;2.00;;;;;;;;;;4950974;28;20444;-70
2022/09/22 14:53:26;;;;;;;3.23;2.10;;;;;;;;;;4968089;28;20444;-71
2022/09/22 14:55:58;;;;;;;;;;;;;;;;;;4927502;28;20373;-70
2022/09/22 14:58:25;;;;;;;3.40;2.00;;;;;;;;;;4911036;28;20284;-70
2022/09/22 15:04:22;;;;;;;3.63;2.00;;;;;;;;;;4968783;28;20395;-70
2022/09/22 15:06:50;;;;;;;3.97;2.30;;;;;;;;;;4968126;28;20487;-69
2022/09/22 15:09:26;;;;;;;4.88;2.50;;;;;;;;;;4951993;28;20026;-70
2022/09/22 15:12:02;;;;;;;5.28;2.75;;;;;;;;;;4951137;28;20484;-70
2022/09/22 15:14:41;;;;;;;2.35;1.75;;;;;;;;;;4967498;28;20459;-69
2022/09/22 15:20:49;;;;;;;8.10;3.22;;;;;;;;;;4968335;28;20543;-71
2022/09/22 15:23:15;;;;;;;5.13;2.93;;;;;;;;;;4968046;28;21192;-69
2022/09/22 15:25:44;;;;;;;7.78;3.83;;;;;;;;;;4968391;28;20467;-70
2022/09/22 15:28:13;;;;;;;;;;;;;;;;;;4969912;28;20432;-70
2022/09/22 15:30:40;;;;;;;6.75;3.75;;;;;;;;;;4950356;28;20389;-70
2022/09/22 15:33:06;;;;;;;7.75;4.22;;;;;;;;;;4951517;28;20428;-70
2022/09/22 15:35:36;;;;;;;11.77;5.57;;;;;;;;;;4968822;28;20374;-70
2022/09/22 15:38:01;;;;;;;11.00;6.70;;;;;;;;;;4950932;28;20383;-70